Time;durP1;ratioP1;P1;durP2;ratioP2;P2;SDS_P1;SDS_P2;PMS_P1;PMS_P2;Temp;Humidity;BMP_temperature;BMP_pressure;BME280_temperature;BME280_humidity;BME280_pressure;Samples;Min_cycle;Max_cycle;Signal;HPM_P1;HPM_P2
2023/04/10 00:01:34;;;;;;;21.83;11.93;;;12.60;75.30;;;;;;5010434;28;20193;-76
2023/04/10 00:04:03;;;;;;;23.23;12.47;;;12.60;75.30;;;;;;5003985;28;20200;-77
2023/04/10 00:06:32;;;;;;;21.97;12.30;;;12.60;75.30;;;;;;5006269;28;20189;-77
2023/04/10 00:09:01;;;;;;;23.63;13.23;;;12.60;75.40;;;;;;5003531;28;20196;-77
2023/04/10 00:11:30;;;;;;;21.00;11.87;;;12.60;75.40;;;;;;5007302;28;20701;-77
2023/04/10 00:13:59;;;;;;;26.70;12.73;;;12.60;75.40;;;;;;5005675;28;20196;-78
2023/04/10 00:16:27;;;;;;;24.70;13.27;;;12.60;75.50;;;;;;5004965;28;20204;-77
2023/04/10 00:18:55;;;;;;;22.60;12.27;;;12.60;76.20;;;;;;5009554;28;20708;-78
2023/04/10 00:21:25;;;;;;;22.73;12.10;;;12.60;75.50;;;;;;5011392;28;20194;-77
2023/04/10 00:23:53;;;;;;;21.30;12.03;;;12.60;75.50;;;;;;5008330;28;20255;-76
2023/04/10 00:26:22;;;;;;;22.87;12.73;;;12.60;75.50;;;;;;5011174;28;20203;-77
2023/04/10 00:28:52;;;;;;;21.33;12.27;;;12.60;75.60;;;;;;5009889;28;20219;-77
2023/04/10 00:31:20;;;;;;;22.53;12.47;;;12.50;75.60;;;;;;5009504;28;20259;-77
2023/04/10 00:33:49;;;;;;;24.10;13.27;;;12.50;75.70;;;;;;5010184;28;20197;-77
2023/04/10 00:36:18;;;;;;;23.57;12.53;;;12.50;75.70;;;;;;5009046;28;20192;-77
2023/04/10 00:38:47;;;;;;;22.73;13.07;;;12.50;75.80;;;;;;5006793;28;20263;-77
2023/04/10 00:41:16;;;;;;;21.17;12.40;;;12.50;75.70;;;;;;5006947;28;20255;-77
2023/04/10 00:43:45;;;;;;;22.03;12.80;;;12.50;75.70;;;;;;5006800;28;20201;-77
2023/04/10 00:46:15;;;;;;;27.03;13.07;;;12.50;75.90;;;;;;5010990;28;20203;-77
2023/04/10 00:48:43;;;;;;;21.97;12.07;;;12.40;76.00;;;;;;5007106;28;20656;-76
2023/04/10 00:51:12;;;;;;;23.33;12.13;;;12.40;75.90;;;;;;5007449;28;20188;-77
2023/04/10 00:53:40;;;;;;;20.17;11.57;;;12.40;76.00;;;;;;5009009;28;20220;-78
2023/04/10 00:56:09;;;;;;;23.23;12.37;;;12.40;76.00;;;;;;5011309;28;20600;-76
2023/04/10 00:58:38;;;;;;;23.73;13.00;;;12.30;76.00;;;;;;5003760;28;20193;-78
2023/04/10 01:01:07;;;;;;;22.57;12.73;;;12.30;76.00;;;;;;5006828;28;20196;-77
2023/04/10 01:03:38;;;;;;;23.33;13.03;;;12.30;76.10;;;;;;5010172;28;20196;-78
2023/04/10 01:06:18;;;;;;;24.87;12.57;;;12.30;76.20;;;;;;5012140;28;20192;-77
2023/04/10 01:08:55;;;;;;;23.27;12.87;;;12.30;76.30;;;;;;5010649;28;20200;-77
2023/04/10 01:11:31;;;;;;;22.37;13.33;;;12.20;76.30;;;;;;5008924;28;20188;-77
2023/04/10 01:14:07;;;;;;;22.43;12.80;;;12.20;76.20;;;;;;5008845;28;20318;-77
2023/04/10 01:16:43;;;;;;;26.43;13.03;;;12.20;76.30;;;;;;5008350;28;20184;-78
2023/04/10 01:19:26;;;;;;;26.57;13.20;;;12.20;76.30;;;;;;5002819;28;20193;-77
2023/04/10 01:21:55;;;;;;;25.57;13.53;;;12.20;76.40;;;;;;5009425;28;20189;-77
2023/04/10 01:24:41;;;;;;;24.27;12.67;;;12.20;76.50;;;;;;5005321;28;20211;-77
2023/04/10 01:27:16;;;;;;;26.50;13.13;;;12.10;76.60;;;;;;5009084;28;20259;-77
2023/04/10 01:29:52;;;;;;;21.90;13.43;;;12.10;76.60;;;;;;5005740;28;20726;-76
2023/04/10 01:32:22;;;;;;;24.80;13.60;;;12.10;76.70;;;;;;5005973;28;20615;-78
2023/04/10 01:34:54;;;;;;;23.10;12.93;;;12.10;76.70;;;;;;5004536;28;20192;-78
2023/04/10 01:37:25;;;;;;;22.83;12.27;;;12.10;76.70;;;;;;5002049;28;20192;-78
2023/04/10 01:40:00;;;;;;;22.53;12.17;;;12.00;76.90;;;;;;5003248;28;20653;-77
2023/04/10 01:42:32;;;;;;;22.90;12.20;;;12.00;77.00;;;;;;5007818;28;20883;-78
2023/04/10 01:45:03;;;;;;;22.23;12.47;;;12.00;76.90;;;;;;5009398;28;20193;-77
2023/04/10 01:47:33;;;;;;;22.13;13.57;;;12.00;77.00;;;;;;5006318;28;20253;-77
2023/04/10 01:50:03;;;;;;;21.70;12.20;;;12.00;77.10;;;;;;5012263;28;20240;-77
2023/04/10 01:52:32;;;;;;;23.23;12.73;;;11.90;77.10;;;;;;5011699;28;20266;-78
2023/04/10 01:55:02;;;;;;;23.43;13.07;;;11.90;77.20;;;;;;5009137;28;20200;-78
2023/04/10 01:57:31;;;;;;;24.83;13.47;;;11.90;77.10;;;;;;5001264;28;20276;-78
2023/04/10 02:00:01;;;;;;;24.40;13.60;;;11.90;77.20;;;;;;5003810;28;20573;-77
2023/04/10 02:02:31;;;;;;;23.73;12.63;;;11.90;77.10;;;;;;5009930;28;20197;-77
2023/04/10 02:05:00;;;;;;;23.20;12.90;;;11.90;77.20;;;;;;5009207;28;20282;-77
2023/04/10 02:07:39;;;;;;;26.33;13.70;;;11.80;77.10;;;;;;5010277;28;20612;-76
2023/04/10 02:10:13;;;;;;;22.93;12.17;;;11.80;77.20;;;;;;5004921;28;20275;-78
2023/04/10 02:12:46;;;;;;;25.20;12.70;;;11.80;77.20;;;;;;5005522;28;20223;-77
2023/04/10 02:15:19;;;;;;;22.30;13.50;;;11.80;77.20;;;;;;5007326;28;20298;-79
2023/04/10 02:17:48;;;;;;;24.03;13.43;;;11.80;77.30;;;;;;5005800;28;20230;-78
2023/04/10 02:20:18;;;;;;;27.00;12.80;;;11.80;77.30;;;;;;5007247;28;20189;-77
2023/04/10 02:22:47;;;;;;;24.57;13.50;;;11.80;77.20;;;;;;5009214;28;20185;-76
2023/04/10 02:25:16;;;;;;;25.17;13.23;;;11.80;77.30;;;;;;5005611;28;20242;-77
2023/04/10 02:27:44;;;;;;;24.50;14.70;;;11.80;77.30;;;;;;5004923;28;20436;-77
2023/04/10 02:30:13;;;;;;;22.07;12.83;;;11.70;77.70;;;;;;5005890;28;20484;-77
2023/04/10 02:32:42;;;;;;;24.87;13.53;;;11.70;77.70;;;;;;5001686;28;20232;-77
2023/04/10 02:35:11;;;;;;;21.73;12.53;;;11.70;77.70;;;;;;5008582;28;20619;-77
2023/04/10 02:37:41;;;;;;;28.53;13.67;;;11.70;77.70;;;;;;5005992;28;20294;-77
2023/04/10 02:40:10;;;;;;;22.30;12.93;;;11.60;77.70;;;;;;5002276;28;20567;-77
2023/04/10 02:42:38;;;;;;;22.10;12.40;;;11.60;77.60;;;;;;5002568;28;20196;-77
2023/04/10 02:45:08;;;;;;;25.97;13.40;;;11.60;77.70;;;;;;5005917;28;20200;-77
2023/04/10 02:47:36;;;;;;;24.73;13.03;;;11.60;77.70;;;;;;5000958;28;20234;-78
2023/04/10 02:50:07;;;;;;;25.17;13.30;;;11.60;77.70;;;;;;5008523;28;20200;-78
2023/04/10 02:52:35;;;;;;;24.47;13.90;;;11.50;77.70;;;;;;5006095;28;20259;-78
2023/04/10 02:55:04;;;;;;;24.10;12.73;;;11.50;77.70;;;;;;5001368;28;21396;-77
2023/04/10 02:57:32;;;;;;;23.10;13.27;;;11.50;77.80;;;;;;5008448;28;20529;-78
2023/04/10 03:00:01;;;;;;;23.10;12.20;;;11.50;78.00;;;;;;5009757;28;20200;-77
2023/04/10 03:02:30;;;;;;;23.97;13.57;;;11.50;78.00;;;;;;5007259;28;20189;-77
2023/04/10 03:05:00;;;;;;;24.97;14.37;;;11.40;78.00;;;;;;5009092;28;20696;-78
2023/04/10 03:07:31;;;;;;;26.13;14.80;;;11.40;78.10;;;;;;5002389;28;20242;-76
2023/04/10 03:09:59;;;;;;;25.90;13.37;;;11.40;78.20;;;;;;5000709;28;20200;-77
2023/04/10 03:12:27;;;;;;;26.00;13.83;;;11.40;78.20;;;;;;5002783;28;20192;-77
2023/04/10 03:14:56;;;;;;;22.77;13.53;;;11.40;78.30;;;;;;5001450;28;20614;-76
2023/04/10 03:17:24;;;;;;;24.00;14.00;;;11.40;78.30;;;;;;5004596;28;20238;-77
2023/04/10 03:19:52;;;;;;;27.93;13.77;;;11.40;78.30;;;;;;5008035;28;20247;-77
2023/04/10 03:22:21;;;;;;;22.10;13.00;;;11.40;78.30;;;;;;5005321;28;20611;-77
2023/04/10 03:24:51;;;;;;;23.83;13.87;;;11.30;78.30;;;;;;5006832;28;20668;-77
2023/04/10 03:27:20;;;;;;;29.80;13.97;;;11.30;78.30;;;;;;4999348;28;20650;-77
2023/04/10 03:29:48;;;;;;;25.47;13.80;;;11.30;78.30;;;;;;5006380;28;20200;-77
2023/04/10 03:32:17;;;;;;;25.70;13.57;;;11.30;78.40;;;;;;5004855;28;20289;-77
2023/04/10 03:34:45;;;;;;;23.83;13.27;;;11.30;78.50;;;;;;5001451;28;20228;-77
2023/04/10 03:37:13;;;;;;;29.53;13.83;;;11.30;78.40;;;;;;5000127;28;20216;-77
2023/04/10 03:39:42;;;;;;;24.03;14.00;;;11.30;78.40;;;;;;5005032;28;20259;-77
2023/04/10 03:42:11;;;;;;;27.47;13.93;;;11.30;78.60;;;;;;5005292;28;20203;-78
2023/04/10 03:44:40;;;;;;;28.17;13.73;;;11.20;78.40;;;;;;5004223;28;20189;-78
2023/04/10 03:47:08;;;;;;;25.30;13.23;;;11.30;78.50;;;;;;5006481;28;20185;-78
2023/04/10 03:49:37;;;;;;;22.00;12.47;;;11.20;78.50;;;;;;5016648;28;20224;-77
2023/04/10 03:52:05;;;;;;;21.53;12.37;;;11.20;78.50;;;;;;5007828;28;20188;-77
2023/04/10 03:54:33;;;;;;;23.07;13.53;;;11.20;78.50;;;;;;5019505;28;20224;-78
2023/04/10 03:57:02;;;;;;;26.10;12.80;;;11.20;78.50;;;;;;5010228;28;20220;-77
2023/04/10 03:59:31;;;;;;;28.77;13.40;;;11.20;78.50;;;;;;5007750;28;20185;-77
2023/04/10 04:02:07;;;;;;;25.03;13.20;;;11.20;78.60;;;;;;5011618;28;20192;-77
2023/04/10 04:04:35;;;;;;;24.10;13.50;;;11.20;78.60;;;;;;5009126;28;20227;-78
2023/04/10 04:07:04;;;;;;;25.90;13.17;;;11.20;78.60;;;;;;5011404;28;20665;-77
2023/04/10 04:09:32;;;;;;;27.27;12.80;;;11.10;78.50;;;;;;5010550;28;20657;-77
2023/04/10 04:12:00;;;;;;;23.83;12.93;;;11.10;78.50;;;;;;5012552;28;20720;-77
2023/04/10 04:14:29;;;;;;;25.00;12.80;;;11.10;78.60;;;;;;5005159;28;20315;-77
2023/04/10 04:16:58;;;;;;;27.17;12.50;;;11.20;78.60;;;;;;5009250;28;20258;-77
2023/04/10 04:19:27;;;;;;;24.33;13.37;;;11.10;78.60;;;;;;5007629;28;20199;-77
2023/04/10 04:21:55;;;;;;;25.17;13.43;;;11.10;78.70;;;;;;5009618;28;20684;-77
2023/04/10 04:24:23;;;;;;;25.10;13.70;;;11.10;78.80;;;;;;5008375;28;20200;-76
2023/04/10 04:26:52;;;;;;;25.03;13.53;;;11.10;79.10;;;;;;5009989;28;20193;-77
2023/04/10 04:29:21;;;;;;;24.73;13.40;;;11.10;79.00;;;;;;5007430;28;20200;-77
2023/04/10 04:31:51;;;;;;;28.77;14.10;;;11.10;80.00;;;;;;5012376;28;20232;-76
2023/04/10 04:34:20;;;;;;;24.13;12.97;;;11.10;79.10;;;;;;5010269;28;20266;-78
2023/04/10 04:36:49;;;;;;;25.13;13.07;;;11.20;79.20;;;;;;5006694;28;20678;-77
2023/04/10 04:39:17;;;;;;;25.97;13.50;;;11.20;79.30;;;;;;5006800;28;20196;-76
2023/04/10 04:41:46;;;;;;;24.10;12.93;;;11.20;79.40;;;;;;5009363;28;20603;-77
2023/04/10 04:44:14;;;;;;;26.63;13.80;;;11.20;80.30;;;;;;5007794;28;20247;-78
2023/04/10 04:46:42;;;;;;;26.83;14.10;;;11.20;79.70;;;;;;5008369;28;20357;-77
2023/04/10 04:49:11;;;;;;;22.33;13.23;;;11.20;80.50;;;;;;5007626;28;20641;-77
2023/04/10 04:51:41;;;;;;;26.03;13.60;;;11.30;80.20;;;;;;5008157;28;20235;-77
2023/04/10 04:54:09;;;;;;;22.57;13.53;;;11.30;80.10;;;;;;5005663;28;20263;-77
2023/04/10 04:56:38;;;;;;;29.93;14.33;;;11.30;80.00;;;;;;5011440;28;20254;-77
2023/04/10 04:59:06;;;;;;;24.50;13.83;;;11.30;80.20;;;;;;5009569;28;20193;-77
2023/04/10 05:01:34;;;;;;;24.33;14.03;;;11.40;80.30;;;;;;5003719;28;20247;-77
2023/04/10 05:04:03;;;;;;;26.73;14.03;;;11.40;80.30;;;;;;5007838;28;20679;-77
2023/04/10 05:06:31;;;;;;;25.53;14.03;;;11.40;80.40;;;;;;5010370;28;20567;-77
2023/04/10 05:09:01;;;;;;;25.17;13.20;;;11.40;80.70;;;;;;5013995;28;20620;-77
2023/04/10 05:11:29;;;;;;;23.50;14.03;;;11.50;80.80;;;;;;5012846;28;20197;-77
2023/04/10 05:13:58;;;;;;;24.03;13.80;;;11.50;81.10;;;;;;5001662;28;20216;-77
2023/04/10 05:16:26;;;;;;;28.87;14.97;;;11.50;81.30;;;;;;5009982;28;20259;-78
2023/04/10 05:18:55;;;;;;;22.60;14.07;;;11.50;81.50;;;;;;5012833;28;20388;-77
2023/04/10 05:21:24;;;;;;;23.10;13.73;;;11.50;81.30;;;;;;5006267;28;20189;-77
2023/04/10 05:23:53;;;;;;;25.40;13.67;;;11.60;81.50;;;;;;5011722;28;20587;-76
2023/04/10 05:26:23;;;;;;;24.23;13.47;;;11.60;81.30;;;;;;5009690;28;20192;-76
2023/04/10 05:28:51;;;;;;;21.63;12.67;;;11.70;81.30;;;;;;5000900;28;20637;-77
2023/04/10 05:31:20;;;;;;;25.40;13.80;;;11.70;81.80;;;;;;5009939;28;20259;-77
2023/04/10 05:33:48;;;;;;;23.83;12.60;;;11.80;81.50;;;;;;5007620;28;20798;-77
2023/04/10 05:36:17;;;;;;;24.97;13.50;;;11.80;81.50;;;;;;5008796;28;20196;-76
2023/04/10 05:38:46;;;;;;;25.73;13.37;;;11.90;81.50;;;;;;5013627;28;20200;-77
2023/04/10 05:41:14;;;;;;;21.73;13.03;;;11.90;81.40;;;;;;5014134;28;20204;-77
2023/04/10 05:43:44;;;;;;;25.20;12.87;;;12.00;81.10;;;;;;5011711;28;20653;-77
2023/04/10 05:46:12;;;;;;;23.83;13.70;;;12.10;80.90;;;;;;5010746;28;20564;-78
2023/04/10 05:48:41;;;;;;;27.27;14.43;;;12.20;80.70;;;;;;5011190;28;20666;-76
2023/04/10 05:51:09;;;;;;;28.10;13.70;;;12.20;80.60;;;;;;5013078;28;20608;-77
2023/04/10 05:53:37;;;;;;;24.17;13.67;;;12.30;80.60;;;;;;5012985;28;20242;-76
2023/04/10 05:56:06;;;;;;;22.30;12.80;;;12.40;80.50;;;;;;5000904;28;20226;-75
2023/04/10 05:58:35;;;;;;;25.73;13.20;;;12.50;79.70;;;;;;5007285;28;22433;-76
2023/04/10 06:01:05;;;;;;;24.83;12.07;;;12.60;78.70;;;;;;5009402;28;20193;-77
2023/04/10 06:03:34;;;;;;;21.37;12.17;;;12.70;79.00;;;;;;5013665;28;20258;-77
2023/04/10 06:06:02;;;;;;;18.93;11.40;;;12.80;78.40;;;;;;5008543;28;20266;-77
2023/04/10 06:08:31;;;;;;;20.57;11.50;;;13.00;78.30;;;;;;5009379;28;20207;-77
2023/04/10 06:10:59;;;;;;;20.90;11.87;;;13.10;76.90;;;;;;5003169;28;20192;-78
2023/04/10 06:13:27;;;;;;;20.57;12.77;;;13.20;76.80;;;;;;5010037;28;20288;-78
2023/04/10 06:15:56;;;;;;;24.10;12.80;;;13.30;75.00;;;;;;5007549;28;20228;-78
2023/04/10 06:18:26;;;;;;;20.57;12.93;;;13.30;75.10;;;;;;5008722;28;20215;-77
2023/04/10 06:20:55;;;;;;;20.67;11.60;;;13.40;75.30;;;;;;5004464;28;20232;-78
2023/04/10 06:23:23;;;;;;;19.83;11.30;;;13.50;75.30;;;;;;5005206;28;20193;-77
2023/04/10 06:25:52;;;;;;;21.80;11.53;;;13.60;75.10;;;;;;5009843;28;20192;-77
2023/04/10 06:28:20;;;;;;;22.03;12.40;;;13.60;74.70;;;;;;5012707;28;20192;-77
2023/04/10 06:30:48;;;;;;;23.70;12.40;;;13.70;74.60;;;;;;5007709;28;20205;-77
2023/04/10 06:33:17;;;;;;;23.50;11.83;;;13.90;75.00;;;;;;5000128;28;20260;-77
2023/04/10 06:35:47;;;;;;;20.77;12.77;;;13.90;74.10;;;;;;4995944;28;20248;-78
2023/04/10 06:38:15;;;;;;;20.67;12.37;;;14.00;73.50;;;;;;5007391;28;20207;-79
2023/04/10 06:40:44;;;;;;;22.53;11.60;;;14.00;72.60;;;;;;5007674;28;20227;-77
2023/04/10 06:43:12;;;;;;;20.30;11.83;;;14.10;73.00;;;;;;4996291;28;20200;-76
2023/04/10 06:45:40;;;;;;;19.10;12.17;;;14.20;73.50;;;;;;5004961;28;20192;-78
2023/04/10 06:48:09;;;;;;;17.87;10.83;;;14.40;73.80;;;;;;4998784;28;20247;-77
2023/04/10 06:51:04;;;;;;;23.43;11.90;;;14.50;73.70;;;;;;5005031;28;20251;-79
2023/04/10 06:53:32;;;;;;;22.53;12.63;;;14.60;72.60;;;;;;5004591;28;20188;-77
2023/04/10 06:56:00;;;;;;;18.97;11.70;;;14.70;71.60;;;;;;5002132;28;20224;-78
2023/04/10 06:58:31;;;;;;;21.83;13.37;;;14.80;71.20;;;;;;5005178;28;20203;-78
2023/04/10 07:01:03;;;;;;;20.97;12.47;;;14.90;71.50;;;;;;5010262;28;20193;-76
2023/04/10 07:03:32;;;;;;;19.07;12.23;;;14.90;71.30;;;;;;5003781;28;20636;-77
2023/04/10 07:06:02;;;;;;;19.87;11.73;;;15.10;71.50;;;;;;5010108;28;20711;-78
2023/04/10 07:08:30;;;;;;;20.67;12.77;;;15.20;71.10;;;;;;5004982;28;20201;-78
2023/04/10 07:10:59;;;;;;;22.23;12.47;;;15.30;71.00;;;;;;5008830;28;20196;-76
2023/04/10 07:13:27;;;;;;;21.17;12.77;;;15.40;71.10;;;;;;5008674;28;20203;-77
2023/04/10 07:15:55;;;;;;;21.33;12.47;;;15.40;70.80;;;;;;5003621;28;20244;-79
2023/04/10 07:18:24;;;;;;;20.40;11.97;;;15.50;70.90;;;;;;5011551;28;20219;-77
2023/04/10 07:20:52;;;;;;;21.30;11.60;;;15.60;69.60;;;;;;5012090;28;20593;-76
2023/04/10 07:23:22;;;;;;;18.77;10.97;;;15.60;70.10;;;;;;5011046;28;20255;-78
2023/04/10 07:25:53;;;;;;;22.33;12.63;;;15.70;70.20;;;;;;5015005;28;20200;-77
2023/04/10 07:28:22;;;;;;;19.47;11.57;;;15.80;70.40;;;;;;5012345;28;20238;-76
2023/04/10 07:30:50;;;;;;;20.83;12.13;;;15.80;69.50;;;;;;5023213;28;20269;-76
2023/04/10 07:33:18;;;;;;;23.63;12.30;;;15.90;68.80;;;;;;5014943;28;20224;-76
2023/04/10 07:35:47;;;;;;;18.67;11.13;;;15.90;68.90;;;;;;5013733;28;20281;-77
2023/04/10 07:38:16;;;;;;;17.47;10.90;;;16.00;68.50;;;;;;5013188;28;20939;-77
2023/04/10 07:40:46;;;;;;;18.90;11.37;;;16.10;68.60;;;;;;5016754;28;20204;-76
2023/04/10 07:43:14;;;;;;;18.37;11.50;;;16.10;68.20;;;;;;5015134;28;20192;-77
2023/04/10 07:45:43;;;;;;;16.87;10.30;;;16.20;68.00;;;;;;5022889;28;20728;-77
2023/04/10 07:48:11;;;;;;;19.83;11.37;;;16.20;67.70;;;;;;5015416;28;20199;-76
2023/04/10 07:50:39;;;;;;;20.73;12.07;;;16.30;67.90;;;;;;5018907;28;20616;-76
2023/04/10 07:53:08;;;;;;;17.40;11.20;;;16.30;67.80;;;;;;5014744;28;20259;-77
2023/04/10 07:55:39;;;;;;;17.47;11.57;;;16.40;67.60;;;;;;5016186;28;20469;-76
2023/04/10 07:58:09;;;;;;;18.67;11.43;;;16.40;66.50;;;;;;5015923;28;20254;-79
2023/04/10 08:00:38;;;;;;;19.03;11.30;;;16.50;66.90;;;;;;5008137;28;20661;-77
2023/04/10 08:03:06;;;;;;;17.80;9.97;;;16.60;67.30;;;;;;5006771;28;20266;-77
2023/04/10 08:05:44;;;;;;;19.00;10.40;;;16.60;65.20;;;;;;5010254;28;20246;-78
2023/04/10 08:08:12;;;;;;;17.20;10.63;;;16.60;65.50;;;;;;5011969;28;20249;-77
2023/04/10 08:10:43;;;;;;;19.20;10.27;;;16.60;65.30;;;;;;5007877;28;21199;-76
2023/04/10 08:13:13;;;;;;;18.43;11.13;;;16.70;65.40;;;;;;5014804;28;20192;-77
2023/04/10 08:15:42;;;;;;;16.50;10.47;;;16.80;65.10;;;;;;5016333;28;20220;-77
2023/04/10 08:18:10;;;;;;;18.27;10.63;;;16.80;64.70;;;;;;5011799;28;20219;-77
2023/04/10 08:20:38;;;;;;;19.97;11.23;;;16.80;63.90;;;;;;5013744;28;20192;-78
2023/04/10 08:23:07;;;;;;;15.07;9.57;;;16.90;64.60;;;;;;5012463;28;20204;-76
2023/04/10 08:25:55;;;;;;;16.90;9.90;;;16.90;64.20;;;;;;5013244;28;20234;-78
2023/04/10 08:28:25;;;;;;;16.37;9.83;;;17.00;64.70;;;;;;5009994;28;20215;-77
2023/04/10 08:30:54;;;;;;;16.40;10.00;;;17.10;65.00;;;;;;5018328;28;20227;-76
2023/04/10 08:33:22;;;;;;;16.53;9.40;;;17.10;64.80;;;;;;5019557;28;20224;-76
2023/04/10 08:35:50;;;;;;;16.50;10.37;;;17.20;64.10;;;;;;5006347;28;20224;-78
2023/04/10 08:38:20;;;;;;;17.40;10.47;;;17.30;64.40;;;;;;5007768;28;20745;-77
2023/04/10 08:40:48;;;;;;;15.57;9.00;;;17.40;64.90;;;;;;5015774;28;20291;-76
2023/04/10 08:43:17;;;;;;;13.37;8.73;;;17.50;65.00;;;;;;5013440;28;20196;-76
2023/04/10 08:45:47;;;;;;;15.60;9.40;;;17.50;64.10;;;;;;5021650;28;20201;-76
2023/04/10 08:48:18;;;;;;;16.23;9.63;;;17.60;63.80;;;;;;5015004;28;20220;-76
2023/04/10 08:50:47;;;;;;;16.63;9.53;;;17.70;63.90;;;;;;5014893;28;20658;-78
2023/04/10 08:53:17;;;;;;;16.27;9.50;;;17.80;62.60;;;;;;5025934;28;20192;-77
2023/04/10 08:55:46;;;;;;;15.27;9.40;;;17.90;62.90;;;;;;5021716;28;20263;-75
2023/04/10 08:58:16;;;;;;;15.73;8.67;;;17.90;62.60;;;;;;5009552;28;20246;-77
2023/04/10 09:00:46;;;;;;;14.70;8.97;;;18.00;62.20;;;;;;5016605;28;20729;-78
2023/04/10 09:03:15;;;;;;;12.50;8.23;;;18.10;60.80;;;;;;5003144;28;20235;-77
2023/04/10 09:05:44;;;;;;;15.50;8.73;;;18.20;61.50;;;;;;5014925;28;20283;-78
2023/04/10 09:08:15;;;;;;;13.10;8.63;;;18.20;60.60;;;;;;5020318;28;20223;-78
2023/04/10 09:10:43;;;;;;;15.07;9.13;;;18.30;61.00;;;;;;5011622;28;20204;-78
2023/04/10 09:13:12;;;;;;;14.83;9.07;;;18.30;59.40;;;;;;5013507;28;20195;-77
2023/04/10 09:16:01;;;;;;;13.97;8.73;;;18.40;59.10;;;;;;5021316;28;20206;-78
2023/04/10 09:18:44;;;;;;;14.43;8.73;;;18.40;58.30;;;;;;5014284;28;20755;-77
2023/04/10 09:21:14;;;;;;;16.70;9.43;;;18.50;59.30;;;;;;5011045;28;20250;-78
2023/04/10 09:23:44;;;;;;;14.87;8.10;;;18.50;59.40;;;;;;5016679;28;20251;-77
2023/04/10 09:26:29;;;;;;;15.20;8.47;;;18.50;59.60;;;;;;5015740;28;20255;-77
2023/04/10 09:28:59;;;;;;;14.97;8.87;;;18.60;59.60;;;;;;5016378;28;20196;-78
2023/04/10 09:31:31;;;;;;;14.73;9.17;;;18.70;59.50;;;;;;5018270;28;20192;-78
2023/04/10 09:34:12;;;;;;;13.43;8.83;;;18.70;59.30;;;;;;5008720;28;20294;-78
2023/04/10 09:36:43;;;;;;;13.67;8.57;;;18.80;59.20;;;;;;5014330;28;20220;-77
2023/04/10 09:39:12;;;;;;;13.17;8.00;;;18.90;59.10;;;;;;5009927;28;20284;-76
2023/04/10 09:41:51;;;;;;;17.43;8.87;;;18.90;58.30;;;;;;5004681;28;20196;-78
2023/04/10 09:44:29;;;;;;;14.10;8.50;;;18.90;58.30;;;;;;5011096;28;20196;-78
2023/04/10 09:46:59;;;;;;;14.53;8.63;;;18.90;58.30;;;;;;5010392;28;20661;-77
2023/04/10 09:49:28;;;;;;;11.53;7.53;;;18.90;56.90;;;;;;5007841;28;20196;-78
2023/04/10 09:51:56;;;;;;;10.67;7.20;;;19.00;55.90;;;;;;5015127;28;20541;-78
2023/04/10 09:54:37;;;;;;;12.10;7.57;;;19.10;56.70;;;;;;5013686;28;20641;-77
2023/04/10 09:57:07;;;;;;;12.97;7.57;;;19.10;55.70;;;;;;5021313;28;20603;-80
2023/04/10 09:59:39;;;;;;;11.97;7.53;;;19.10;56.20;;;;;;5011179;28;20711;-79
2023/04/10 10:02:13;;;;;;;12.63;7.60;;;19.30;56.60;;;;;;5011894;28;20192;-77
2023/04/10 10:04:44;;;;;;;14.13;7.57;;;19.30;56.40;;;;;;5013701;28;20207;-76
2023/04/10 10:07:14;;;;;;;12.00;7.53;;;19.40;55.70;;;;;;5016033;28;20184;-79
2023/04/10 10:09:44;;;;;;;11.97;7.17;;;19.50;55.20;;;;;;5018260;28;20192;-77
2023/04/10 10:12:15;;;;;;;11.67;7.47;;;19.50;55.20;;;;;;5025263;28;20196;-76
2023/04/10 10:14:50;;;;;;;10.27;6.70;;;19.50;55.00;;;;;;5014691;28;20251;-78
2023/04/10 10:17:24;;;;;;;11.37;6.90;;;19.50;54.00;;;;;;5008752;28;20625;-78
2023/04/10 10:19:58;;;;;;;11.27;7.10;;;19.50;53.10;;;;;;5009161;28;20294;-77
2023/04/10 10:22:29;;;;;;;11.97;7.53;;;19.50;53.80;;;;;;5015433;28;20187;-78
2023/04/10 10:24:59;;;;;;;10.65;7.18;;;19.60;54.10;;;;;;5007166;28;20730;-76
2023/04/10 10:27:30;;;;;;;11.18;6.70;;;19.60;53.00;;;;;;5016384;28;20189;-78
2023/04/10 10:30:00;;;;;;;10.23;6.82;;;19.70;53.50;;;;;;5011679;28;20192;-77
2023/04/10 10:32:46;;;;;;;10.73;6.33;;;19.70;54.10;;;;;;5008758;28;20856;-80
2023/04/10 10:35:15;;;;;;;9.25;5.53;;;19.80;53.80;;;;;;5005531;28;20195;-79
2023/04/10 10:37:45;;;;;;;11.65;5.65;;;19.80;52.00;;;;;;5006973;28;20228;-80
2023/04/10 10:40:20;;;;;;;11.75;6.90;;;19.80;50.70;;;;;;5006125;28;20196;-77
2023/04/10 10:42:57;;;;;;;9.55;5.75;;;19.70;50.50;;;;;;5005959;28;20661;-76
2023/04/10 10:45:33;;;;;;;8.70;5.72;;;19.70;51.30;;;;;;5018959;28;20199;-77
2023/04/10 10:48:02;;;;;;;9.82;5.43;;;19.60;49.50;;;;;;5012621;28;20290;-78
2023/04/10 10:50:57;;;;;;;11.07;6.73;;;19.70;50.40;;;;;;5023740;28;20206;-77
2023/04/10 10:53:36;;;;;;;10.18;5.90;;;19.80;50.70;;;;;;5009190;28;20301;-77
2023/04/10 10:56:40;;;;;;;10.98;6.38;;;19.90;51.50;;;;;;4995729;28;20267;-77
2023/04/10 10:59:10;;;;;;;11.43;6.85;;;19.80;50.40;;;;;;5000999;28;20288;-78
2023/04/10 11:01:52;;;;;;;10.65;6.40;;;19.90;50.80;;;;;;5008187;28;20200;-78
2023/04/10 11:04:44;;;;;;;12.00;6.43;;;19.90;51.10;;;;;;4998339;28;20192;-76
2023/04/10 11:07:13;;;;;;;10.25;6.57;;;20.10;52.10;;;;;;5006839;28;20279;-79
2023/04/10 11:09:49;;;;;;;10.48;7.03;;;20.10;51.70;;;;;;5003690;28;20196;-77
2023/04/10 11:12:21;;;;;;;9.98;6.55;;;20.20;51.80;;;;;;5003744;28;20700;-78
2023/04/10 11:15:00;;;;;;;9.38;6.38;;;20.30;52.50;;;;;;5012365;28;20195;-78
2023/04/10 11:17:50;;;;;;;9.18;5.85;;;20.40;52.20;;;;;;5009781;28;20227;-78
2023/04/10 11:20:25;;;;;;;11.30;5.70;;;20.50;51.90;;;;;;5010219;28;20641;-78
2023/04/10 11:23:12;;;;;;;7.78;5.60;;;20.50;51.70;;;;;;5009270;28;20195;-78
2023/04/10 11:25:51;;;;;;;9.48;5.75;;;20.60;51.50;;;;;;5009211;28;20673;-79
2023/04/10 11:28:38;;;;;;;10.55;6.07;;;20.60;51.40;;;;;;5006374;28;20200;-78
2023/04/10 11:31:24;;;;;;;9.07;5.55;;;20.70;51.60;;;;;;5009647;28;20196;-80
2023/04/10 11:34:03;;;;;;;8.77;5.53;;;20.70;51.00;;;;;;5013283;28;20287;-78
2023/04/10 11:36:33;;;;;;;7.80;5.35;;;20.70;50.20;;;;;;5006511;28;20200;-78
2023/04/10 11:39:04;;;;;;;11.02;6.13;;;20.60;50.60;;;;;;5010309;28;20231;-77
2023/04/10 11:41:35;;;;;;;8.73;5.18;;;20.80;50.80;;;;;;5011659;28;20204;-78
2023/04/10 11:44:05;;;;;;;8.65;5.72;;;20.80;51.00;;;;;;5011563;28;20192;-77
2023/04/10 11:46:36;;;;;;;9.13;5.70;;;20.90;50.90;;;;;;5011500;28;20188;-76
2023/04/10 11:49:06;;;;;;;9.07;5.50;;;20.90;49.60;;;;;;5002763;28;20200;-78
2023/04/10 11:51:37;;;;;;;13.65;6.00;;;20.90;49.10;;;;;;5007132;28;20259;-78
2023/04/10 11:54:07;;;;;;;10.90;5.90;;;21.00;49.40;;;;;;5009237;28;20203;-78
2023/04/10 11:56:36;;;;;;;7.93;5.35;;;21.10;49.40;;;;;;5011814;28;20279;-77
2023/04/10 11:59:09;;;;;;;7.57;5.00;;;21.10;49.50;;;;;;5007389;28;20228;-78
2023/04/10 12:01:38;;;;;;;7.72;5.15;;;21.10;48.90;;;;;;5012312;28;20201;-76
2023/04/10 12:04:16;;;;;;;9.65;5.28;;;21.20;49.10;;;;;;5011265;28;20192;-79
2023/04/10 12:06:51;;;;;;;9.20;5.85;;;21.20;49.30;;;;;;5005535;28;20589;-78
2023/04/10 12:09:21;;;;;;;8.75;5.35;;;21.20;49.40;;;;;;5005806;28;20210;-77
2023/04/10 12:11:52;;;;;;;9.43;5.50;;;21.30;49.30;;;;;;5010948;28;20220;-78
2023/04/10 12:14:21;;;;;;;7.97;5.63;;;21.20;48.40;;;;;;5001225;28;20644;-79
2023/04/10 12:16:50;;;;;;;8.80;5.90;;;21.30;49.20;;;;;;5014908;28;20257;-79
2023/04/10 12:19:19;;;;;;;10.10;5.25;;;21.30;49.00;;;;;;5015951;28;20692;-75
2023/04/10 12:21:50;;;;;;;8.18;5.53;;;21.20;48.10;;;;;;5011231;28;20231;-75
2023/04/10 12:24:43;;;;;;;9.77;6.15;;;21.30;48.70;;;;;;5011250;28;20246;-74
2023/04/10 12:27:17;;;;;;;11.63;6.30;;;21.30;48.00;;;;;;5013019;28;20243;-75
2023/04/10 12:29:46;;;;;;;8.73;5.40;;;21.30;48.40;;;;;;5008943;28;20200;-74
2023/04/10 12:32:15;;;;;;;9.05;5.95;;;21.30;48.10;;;;;;5011174;28;20223;-74
2023/04/10 12:34:50;;;;;;;8.85;5.38;;;21.40;48.20;;;;;;5012474;28;20568;-74
2023/04/10 12:37:20;;;;;;;9.30;5.03;;;21.30;48.30;;;;;;5012389;28;20195;-74
2023/04/10 12:39:50;;;;;;;8.38;4.57;;;21.30;48.10;;;;;;5012464;28;20259;-75
2023/04/10 12:42:21;;;;;;;10.38;5.55;;;21.40;47.40;;;;;;5011247;28;20197;-75
2023/04/10 12:44:54;;;;;;;8.63;5.03;;;21.40;47.20;;;;;;5011547;28;20193;-73
2023/04/10 12:47:23;;;;;;;9.55;4.88;;;21.40;48.20;;;;;;5010594;28;20201;-74
2023/04/10 12:50:09;;;;;;;9.65;5.53;;;21.30;47.00;;;;;;5012748;28;20215;-74